Time;durP1;ratioP1;P1;durP2;ratioP2;P2;SDS_P1;SDS_P2;PMS_P1;PMS_P2;Temp;Humidity;BMP_temperature;BMP_pressure;BME280_temperature;BME280_humidity;BME280_pressure;Samples;Min_cycle;Max_cycle;Signal;HPM_P1;HPM_P2
2021/04/11 00:01:09;;;;;;;7.57;4.30;;;;;;;1.76;62.82;94090.06;5091116;28;20056;-46
2021/04/11 00:03:35;;;;;;;7.20;6.65;;;;;;;1.67;63.03;94089.47;5082386;28;20044;-45
2021/04/11 00:06:00;;;;;;;0.75;0.75;;;;;;;1.69;63.43;94092.44;5071032;28;20048;-48
2021/04/11 00:08:26;;;;;;;0.82;0.82;;;;;;;1.85;62.58;94095.38;5070569;28;20021;-44
2021/04/11 00:10:54;;;;;;;2.70;2.55;;;;;;;1.87;62.06;94097.63;5070618;28;20035;-46
2021/04/11 00:13:26;;;;;;;4.50;1.27;;;;;;;1.64;62.62;94098.56;5070945;28;20028;-47
2021/04/11 00:15:51;;;;;;;0.88;0.88;;;;;;;1.46;62.55;94088.69;5082453;28;20614;-48
2021/04/11 00:18:17;;;;;;;1.60;1.45;;;;;;;1.31;63.78;94088.72;5083503;28;20115;-47
2021/04/11 00:20:43;;;;;;;2.70;2.50;;;;;;;1.26;64.72;94075.03;5081875;28;20035;-46
2021/04/11 00:23:09;;;;;;;3.00;2.83;;;;;;;1.35;64.64;94091.25;5090863;28;20036;-43
2021/04/11 00:25:37;;;;;;;5.97;2.17;;;;;;;1.49;63.72;94090.47;5090383;28;20086;-44
2021/04/11 00:28:03;;;;;;;2.67;2.58;;;;;;;1.38;63.22;94093.78;5090502;28;20096;-43
2021/04/11 00:30:29;;;;;;;1.30;1.30;;;;;;;1.46;63.17;94081.28;5086966;28;20089;-47
2021/04/11 00:32:57;;;;;;;2.30;2.15;;;;;;;1.45;63.11;94084.47;5090233;28;20031;-46
2021/04/11 00:35:25;;;;;;;0.75;0.75;;;;;;;1.35;63.73;94091.25;5090350;28;20023;-45
2021/04/11 00:37:50;;;;;;;2.47;2.38;;;;;;;1.45;63.57;94081.75;5089925;28;20111;-47
2021/04/11 00:40:20;;;;;;;1.75;1.65;;;;;;;1.52;63.34;94076.66;5089820;28;20076;-46
2021/04/11 00:42:50;;;;;;;1.13;1.13;;;;;;;1.49;63.79;94071.41;5081128;28;20040;-49
2021/04/11 00:45:24;;;;;;;2.50;2.33;;;;;;;1.52;64.22;94078.63;5079230;28;20418;-45
2021/04/11 00:47:50;;;;;;;1.77;1.67;;;;;;;1.41;63.69;94073.78;5079601;28;20588;-45
2021/04/11 00:50:16;;;;;;;0.25;0.25;;;;;;;1.26;63.93;94075.78;5069170;28;20099;-47
2021/04/11 00:52:41;;;;;;;1.00;1.00;;;;;;;1.27;63.96;94076.56;5069007;28;20111;-44
2021/04/11 00:55:08;;;;;;;0.52;0.52;;;;;;;1.14;64.58;94060.56;5068772;28;20025;-47
2021/04/11 00:57:34;;;;;;;0.38;0.38;;;;;;;0.97;65.42;94073.16;5070038;28;20036;-47
2021/04/11 01:00:00;;;;;;;0.52;0.52;;;;;;;0.80;65.07;94079.56;5081567;28;20019;-46
2021/04/11 01:02:25;;;;;;;2.17;0.75;;;;;;;0.70;65.95;94085.09;5079682;28;20032;-45
2021/04/11 01:04:52;;;;;;;1.00;0.77;;;;;;;0.73;65.50;94073.28;5080094;28;20035;-46
2021/04/11 01:07:19;;;;;;;0.63;0.63;;;;;;;0.60;66.04;94061.97;5087794;28;20035;-45
2021/04/11 01:09:46;;;;;;;0.32;0.32;;;;;;;0.42;66.44;94073.00;5089835;28;20035;-48
2021/04/11 01:12:20;;;;;;;0.30;0.30;;;;;;;0.64;66.41;94080.78;5080011;28;20027;-49
2021/04/11 01:14:45;;;;;;;0.52;0.52;;;;;;;0.79;65.79;94076.09;5075185;28;20036;-46
2021/04/11 01:17:13;;;;;;;0.52;0.52;;;;;;;0.85;66.15;94076.91;5068768;28;20029;-45
2021/04/11 01:19:39;;;;;;;0.30;0.30;;;;;;;0.74;65.89;94079.44;5068370;28;20185;-45
2021/04/11 01:22:29;;;;;;;0.38;0.38;;;;;;;0.82;66.10;94072.44;5069600;28;20024;-45
2021/04/11 01:25:00;;;;;;;1.70;1.02;;;;;;;0.77;65.70;94082.00;5069691;28;20032;-45
2021/04/11 01:27:33;;;;;;;1.13;1.13;;;;;;;0.91;65.52;94069.59;5068175;28;20070;-44
2021/04/11 01:29:58;;;;;;;0.52;0.52;;;;;;;0.99;64.64;94080.84;5080078;28;20035;-46
2021/04/11 01:32:24;;;;;;;4.03;1.77;;;;;;;0.80;65.59;94079.56;5090110;28;20019;-44
2021/04/11 01:34:57;;;;;;;0.52;0.52;;;;;;;0.73;64.75;94080.69;5089936;28;20427;-44
2021/04/11 01:37:24;;;;;;;0.90;0.90;;;;;;;0.52;65.77;94079.84;5089977;28;20020;-47
2021/04/11 01:39:50;;;;;;;0.40;0.40;;;;;;;0.42;67.15;94083.13;5089967;28;20081;-46
2021/04/11 01:42:17;;;;;;;0.20;0.20;;;;;;;0.44;66.11;94083.41;5088421;28;20028;-45
2021/04/11 01:44:45;;;;;;;0.20;0.20;;;;;;;0.63;65.81;94085.47;5090033;28;20112;-46
2021/04/11 01:47:12;;;;;;;0.20;0.20;;;;;;;0.69;65.33;94075.41;5088394;28;20024;-47
2021/04/11 01:49:38;;;;;;;1.23;1.23;;;;;;;0.78;64.88;94075.31;5075107;28;20650;-46
2021/04/11 01:52:07;;;;;;;0.82;0.82;;;;;;;0.71;65.35;94083.13;5068426;28;20048;-47
2021/04/11 01:54:34;;;;;;;0.30;0.30;;;;;;;0.80;65.57;94082.28;5069223;28;20040;-47
2021/04/11 01:57:15;;;;;;;2.58;1.35;;;;;;;0.81;64.69;94081.78;5069566;28;20040;-46
2021/04/11 01:59:40;;;;;;;1.00;1.00;;;;;;;0.70;64.93;94076.94;5068445;28;20016;-47
2021/04/11 02:02:07;;;;;;;0.20;0.20;;;;;;;0.72;64.43;94071.03;5067493;28;20027;-46
2021/04/11 02:04:33;;;;;;;0.45;0.45;;;;;;;0.62;65.03;94066.91;5084842;28;20062;-48
2021/04/11 02:07:02;;;;;;;1.17;1.02;;;;;;;0.52;65.45;94063.53;5089312;28;20067;-48
2021/04/11 02:09:32;;;;;;;1.35;0.70;;;;;;;0.45;65.75;94074.81;5088254;28;20027;-47
2021/04/11 02:11:59;;;;;;;0.40;0.40;;;;;;;0.33;65.65;94047.88;5072269;28;20564;-46
2021/04/11 02:14:25;;;;;;;0.40;0.40;;;;;;;0.61;64.40;94073.56;5069309;28;20027;-46
2021/04/11 02:16:51;;;;;;;4.50;2.45;;;;;;;0.53;65.09;94070.47;5078220;28;20404;-46
2021/04/11 02:19:22;;;;;;;0.30;0.30;;;;;;;0.42;65.32;94070.28;5093373;28;20023;-47
2021/04/11 02:21:52;;;;;;;0.40;0.40;;;;;;;0.64;64.49;94081.53;5091930;28;20638;-46
2021/04/11 02:24:17;;;;;;;0.80;0.80;;;;;;;0.63;64.56;94073.84;5093133;28;20028;-50
2021/04/11 02:26:43;;;;;;;2.88;2.67;;;;;;;0.47;64.60;94053.34;5093282;28;20030;-47
2021/04/11 02:29:14;;;;;;;0.60;0.60;;;;;;;0.42;65.15;94077.69;5087035;28;20516;-48
2021/04/11 02:31:39;;;;;;;0.75;0.75;;;;;;;0.49;64.61;94074.59;5073044;28;20449;-47
2021/04/11 02:34:08;;;;;;;0.63;0.63;;;;;;;0.51;63.87;94077.59;5071435;28;20028;-45
2021/04/11 02:36:40;;;;;;;;;;;;;;;0.38;64.49;94080.59;5071992;28;20035;-45
2021/04/11 02:39:12;;;;;;;2.05;1.95;;;;;;;0.39;64.81;94079.38;5071641;28;19946;-44
2021/04/11 02:41:39;;;;;;;0.63;0.63;;;;;;;0.46;64.52;94080.97;5071503;28;20108;-44
2021/04/11 02:44:04;;;;;;;4.93;1.58;;;;;;;0.28;65.21;94076.44;5073047;28;20386;-45
2021/04/11 02:46:33;;;;;;;1.20;1.20;;;;;;;0.42;64.69;94070.28;5072486;28;20031;-47
2021/04/11 02:48:58;;;;;;;8.47;1.63;;;;;;;0.48;64.47;94078.53;5071554;28;20100;-46
2021/04/11 02:51:25;;;;;;;1.15;1.15;;;;;;;0.06;65.40;94078.78;5072390;28;20475;-46
2021/04/11 02:53:52;;;;;;;0.55;0.55;;;;;;;-0.10;66.84;94077.25;5071105;28;20474;-45
2021/04/11 02:56:18;;;;;;;2.83;2.05;;;;;;;-0.10;66.02;94052.06;5071286;28;20455;-44
2021/04/11 02:58:43;;;;;;;10.82;3.75;;;;;;;0.23;65.39;94084.50;5072302;28;20030;-46
2021/04/11 03:01:14;;;;;;;3.20;3.00;;;;;;;0.21;64.82;94084.97;5071172;28;20111;-45
2021/04/11 03:03:40;;;;;;;3.00;2.83;;;;;;;0.35;65.41;94080.75;5080115;28;20048;-44
2021/04/11 03:06:11;;;;;;;1.90;1.80;;;;;;;0.21;65.46;94086.94;5092411;28;20042;-44
2021/04/11 03:08:37;;;;;;;0.65;0.65;;;;;;;-0.09;66.01;94088.88;5072117;28;20025;-45
2021/04/11 03:11:15;;;;;;;2.90;2.80;;;;;;;-0.20;66.33;94081.25;5070776;28;20027;-45
2021/04/11 03:13:40;;;;;;;2.30;2.20;;;;;;;-0.14;66.55;94084.81;5072052;28;20108;-44
2021/04/11 03:16:06;;;;;;;0.90;0.90;;;;;;;0.02;65.94;94086.38;5070938;28;20107;-44
2021/04/11 03:18:31;;;;;;;2.10;2.00;;;;;;;0.02;65.79;94078.22;5072156;28;20021;-46
2021/04/11 03:20:58;;;;;;;2.20;1.98;;;;;;;0.06;65.37;94080.75;5071132;28;20024;-45
2021/04/11 03:23:23;;;;;;;1.25;1.15;;;;;;;0.05;64.93;94081.94;5072022;28;20043;-46
2021/04/11 03:25:54;;;;;;;0.60;0.60;;;;;;;0.04;64.50;94072.31;5072075;28;20097;-44
2021/04/11 03:28:29;;;;;;;0.30;0.30;;;;;;;-0.18;65.70;94086.97;5069862;28;20044;-43
2021/04/11 03:31:07;;;;;;;3.92;1.70;;;;;;;-0.23;66.29;94076.75;5089687;28;20028;-45
2021/04/11 03:33:36;;;;;;;1.65;1.20;;;;;;;-0.21;66.22;94087.88;5090654;28;20030;-47
2021/04/11 03:36:03;;;;;;;2.97;2.78;;;;;;;-0.21;66.48;94087.88;5089712;28;20100;-45
2021/04/11 03:38:32;;;;;;;0.98;0.88;;;;;;;-0.24;66.35;94086.09;5071054;28;20587;-44
2021/04/11 03:40:58;;;;;;;1.42;0.68;;;;;;;-0.20;66.87;94086.69;5070379;28;20044;-44
2021/04/11 03:43:28;;;;;;;0.50;0.50;;;;;;;-0.34;66.42;94079.25;5077893;28;20500;-45
2021/04/11 03:45:56;;;;;;;3.03;2.05;;;;;;;-0.54;67.57;94083.75;5089053;28;20405;-46
2021/04/11 03:48:41;;;;;;;2.65;2.03;;;;;;;-0.49;67.10;94077.69;5081490;28;20048;-47
2021/04/11 03:51:17;;;;;;;2.05;1.95;;;;;;;-0.59;68.01;94076.25;5081658;28;20073;-47
2021/04/11 03:53:47;;;;;;;0.60;0.60;;;;;;;-0.44;67.96;94079.78;5081631;28;20016;-49
2021/04/11 03:56:16;;;;;;;2.45;2.28;;;;;;;-0.39;67.55;94088.00;5081237;28;20145;-49
2021/04/11 03:58:48;;;;;;;0.73;0.73;;;;;;;-0.76;67.95;94087.50;5081744;28;20042;-46
2021/04/11 04:01:19;;;;;;;1.65;1.63;;;;;;;-0.49;68.11;94094.72;5082903;28;20047;-48
2021/04/11 04:03:45;;;;;;;2.50;2.40;;;;;;;-0.43;67.77;94098.28;5077790;28;20048;-48
2021/04/11 04:06:32;;;;;;;0.40;0.40;;;;;;;-0.28;67.07;94101.81;5083918;28;20012;-44
2021/04/11 04:08:58;;;;;;;2.10;1.98;;;;;;;-0.41;66.79;94103.28;5090934;28;20030;-48
2021/04/11 04:11:44;;;;;;;0.98;0.98;;;;;;;-0.45;67.09;94110.81;5091160;28;20028;-50
2021/04/11 04:14:31;;;;;;;0.98;0.98;;;;;;;-0.74;67.99;94113.41;5084890;28;20021;-47
2021/04/11 04:17:09;;;;;;;0.45;0.45;;;;;;;-0.61;67.53;94111.97;5071002;28;20048;-48
2021/04/11 04:19:47;;;;;;;0.50;0.50;;;;;;;-0.45;66.86;94121.66;5074218;28;20032;-48
2021/04/11 04:22:24;;;;;;;3.42;1.60;;;;;;;-0.51;67.07;94118.09;5073629;28;20028;-47
2021/04/11 04:25:02;;;;;;;15.90;1.23;;;;;;;-0.51;67.59;94132.41;5069562;28;20131;-49
2021/04/11 04:27:35;;;;;;;6.35;1.92;;;;;;;-0.58;66.63;94130.03;5084493;28;20623;-47
2021/04/11 04:30:21;;;;;;;0.60;0.60;;;;;;;-0.35;66.26;94132.03;5077352;28;20107;-49
2021/04/11 04:33:23;;;;;;;1.65;1.55;;;;;;;-0.08;66.13;94126.38;5076574;28;20466;-48
2021/04/11 04:36:13;;;;;;;2.05;1.92;;;;;;;0.03;65.51;94131.28;5035758;28;20041;-47
2021/04/11 04:39:10;;;;;;;3.45;3.17;;;;;;;0.15;65.48;94129.53;5070234;28;20043;-47
2021/04/11 04:42:02;;;;;;;0.95;0.95;;;;;;;0.21;64.70;94133.09;5076544;28;20035;-48
2021/04/11 04:44:59;;;;;;;2.90;1.83;;;;;;;0.31;65.65;94138.00;5066666;28;20437;-50
2021/04/11 04:47:44;;;;;;;1.35;1.25;;;;;;;0.21;65.90;94138.53;5065888;28;20497;-47
2021/04/11 04:50:12;;;;;;;2.55;2.35;;;;;;;0.44;65.29;94135.00;5067720;28;20024;-48
2021/04/11 04:52:40;;;;;;;2.35;0.90;;;;;;;0.40;65.65;94142.59;5067543;28;20028;-49
2021/04/11 04:55:09;;;;;;;1.35;1.35;;;;;;;0.22;66.27;94142.75;5066773;28;20052;-49
2021/04/11 04:57:38;;;;;;;1.27;1.23;;;;;;;0.18;67.16;94142.16;5066424;28;20459;-51
2021/04/11 05:00:12;;;;;;;1.60;1.52;;;;;;;0.10;66.74;94138.31;5079152;28;20035;-54
2021/04/11 05:02:50;;;;;;;0.95;0.95;;;;;;;0.27;67.42;94128.53;5089128;28;20044;-47
2021/04/11 05:05:17;;;;;;;2.40;2.25;;;;;;;0.46;66.39;94144.19;5070095;28;20497;-50
2021/04/11 05:08:05;;;;;;;0.60;0.60;;;;;;;0.58;66.66;94145.91;5069130;28;20494;-49
2021/04/11 05:10:55;;;;;;;1.13;1.13;;;;;;;0.60;66.25;94138.03;5068774;28;20119;-49
2021/04/11 05:13:25;;;;;;;1.13;1.13;;;;;;;0.87;65.83;94147.88;5059068;28;20535;-49
2021/04/11 05:15:58;;;;;;;3.15;2.97;;;;;;;1.11;65.38;94150.47;5069683;28;20541;-49
2021/04/11 05:18:38;;;;;;;2.30;2.03;;;;;;;1.11;64.84;94147.75;5081644;28;20059;-49
2021/04/11 05:21:08;;;;;;;2.00;1.95;;;;;;;1.13;64.88;94146.06;5090054;28;20036;-48
2021/04/11 05:23:40;;;;;;;2.05;1.95;;;;;;;1.38;65.12;94152.88;5079118;28;20123;-49
2021/04/11 05:26:34;;;;;;;5.65;2.08;;;;;;;1.51;64.86;94151.34;5068014;28;20032;-48
2021/04/11 05:29:06;;;;;;;0.60;0.60;;;;;;;1.59;64.97;94146.25;5061843;28;20478;-49
2021/04/11 05:31:36;;;;;;;0.85;0.85;;;;;;;1.56;64.85;94141.75;5068274;28;20488;-49
2021/04/11 05:34:04;;;;;;;0.75;0.75;;;;;;;1.79;64.98;94150.97;5067078;28;20051;-50
2021/04/11 05:36:53;;;;;;;1.23;1.23;;;;;;;2.05;65.00;94140.91;5068585;28;20409;-49
2021/04/11 05:39:40;;;;;;;0.40;0.40;;;;;;;2.63;63.62;94153.44;5069391;28;20520;-47
2021/04/11 05:42:47;;;;;;;3.67;2.55;;;;;;;3.02;61.59;94147.16;5069595;28;20528;-48
2021/04/11 05:45:28;;;;;;;3.80;3.50;;;;;;;3.27;61.09;94144.88;5038483;28;20039;-50
2021/04/11 05:48:00;;;;;;;3.22;2.08;;;;;;;3.39;61.47;94151.91;5069494;28;20039;-48
2021/04/11 05:50:48;;;;;;;2.20;2.10;;;;;;;3.62;61.26;94153.53;5069380;28;20534;-41
2021/04/11 05:53:24;;;;;;;4.32;1.35;;;;;;;3.96;60.85;94149.78;5072288;28;20024;-44
2021/04/11 05:55:55;;;;;;;0.73;0.73;;;;;;;4.58;58.65;94144.06;5081000;28;20040;-40
2021/04/11 05:58:24;;;;;;;0.68;0.68;;;;;;;5.17;56.46;94137.69;5092398;28;20020;-41
2021/04/11 06:01:04;;;;;;;2.83;2.63;;;;;;;5.68;55.98;94136.41;5083191;28;20029;-43
2021/04/11 06:03:30;;;;;;;3.22;2.92;;;;;;;6.43;54.78;94138.72;5075184;28;20043;-41
2021/04/11 06:06:02;;;;;;;1.08;1.08;;;;;;;7.27;53.33;94133.53;5089835;28;20074;-42
2021/04/11 06:08:37;;;;;;;2.67;2.05;;;;;;;7.93;49.71;94137.69;5090258;28;20032;-42
2021/04/11 06:11:14;;;;;;;1.75;1.55;;;;;;;8.32;49.17;94141.56;5090747;28;20660;-42
2021/04/11 06:13:42;;;;;;;4.03;3.72;;;;;;;8.75;48.40;94144.28;5076020;28;20024;-43
2021/04/11 06:16:13;;;;;;;0.75;0.75;;;;;;;9.40;45.59;94135.59;5071024;28;20067;-45
2021/04/11 06:18:44;;;;;;;1.73;1.63;;;;;;;9.59;43.50;94103.25;5069416;28;20035;-44
2021/04/11 06:21:28;;;;;;;1.05;1.05;;;;;;;10.30;41.76;94125.31;5085174;28;20514;-42
2021/04/11 06:24:06;;;;;;;0.20;0.20;;;;;;;11.54;40.66;94122.19;5088164;28;20020;-43
2021/04/11 06:26:40;;;;;;;0.45;0.45;;;;;;;13.08;38.89;94128.44;5088490;28;20485;-42
2021/04/11 06:29:16;;;;;;;0.63;0.63;;;;;;;14.20;35.78;94120.84;5082967;28;20085;-42
2021/04/11 06:31:47;;;;;;;0.55;0.55;;;;;;;14.82;33.43;94123.75;5087612;28;20024;-42
2021/04/11 06:34:25;;;;;;;2.92;0.93;;;;;;;14.63;33.31;94120.63;5081001;28;20078;-43
2021/04/11 06:36:54;;;;;;;0.50;0.50;;;;;;;14.94;32.41;94113.69;5081807;28;20113;-42
2021/04/11 06:39:26;;;;;;;0.57;0.57;;;;;;;14.97;32.11;94123.69;5085454;28;20024;-43
2021/04/11 06:41:57;;;;;;;5.15;1.85;;;;;;;15.43;31.26;94126.28;5076460;28;20036;-42
2021/04/11 06:44:38;;;;;;;0.43;0.43;;;;;;;16.08;29.88;94118.66;5069492;28;20028;-43
2021/04/11 06:47:34;;;;;;;0.47;0.47;;;;;;;16.35;28.66;94120.25;5069435;28;20417;-43
2021/04/11 06:50:15;;;;;;;1.13;1.05;;;;;;;16.61;28.63;94116.91;5069353;28;20468;-44
2021/04/11 06:52:50;;;;;;;1.45;1.35;;;;;;;17.07;27.12;94119.94;5082487;28;20039;-42
2021/04/11 06:55:21;;;;;;;1.40;1.17;;;;;;;17.11;28.04;94116.72;5090173;28;20036;-42
2021/04/11 06:58:21;;;;;;;0.38;0.38;;;;;;;17.53;26.04;94119.41;5090724;28;20023;-40
2021/04/11 07:01:08;;;;;;;0.52;0.52;;;;;;;18.32;24.63;94113.00;5090711;28;20032;-44
2021/04/11 07:04:31;;;;;;;1.45;1.35;;;;;;;19.24;23.83;94115.66;5089889;28;20070;-41
2021/04/11 07:07:30;;;;;;;0.30;0.30;;;;;;;20.72;21.68;94111.41;5007768;28;20042;-41
2021/04/11 07:10:13;;;;;;;0.75;0.75;;;;;;;21.84;20.27;94117.34;5007916;28;20036;-42
2021/04/11 07:13:00;;;;;;;1.30;1.08;;;;;;;22.56;19.77;94109.84;5058068;28;20135;-41
2021/04/11 07:15:54;;;;;;;0.93;0.93;;;;;;;22.78;18.64;94116.81;5069678;28;20060;-42
2021/04/11 07:18:44;;;;;;;2.03;0.80;;;;;;;23.26;16.27;94116.09;5063728;28;20040;-41
2021/04/11 07:21:19;;;;;;;1.30;0.90;;;;;;;21.77;18.28;94118.25;5069605;28;20042;-41
2021/04/11 07:24:35;;;;;;;1.15;1.05;;;;;;;23.96;17.75;94108.09;5069671;28;20055;-41
2021/04/11 07:27:23;;;;;;;0.77;0.60;;;;;;;24.98;15.73;94103.66;5042129;28;20533;-42
2021/04/11 07:29:54;;;;;;;;;;;;;;;25.79;15.08;94108.44;5048002;28;20048;-42
2021/04/11 07:32:26;;;;;;;0.73;0.70;;;;;;;26.54;14.84;94110.56;5068546;28;19981;-41
2021/04/11 07:35:17;;;;;;;0.80;0.65;;;;;;;26.96;14.41;94120.97;5083190;28;20024;-41
2021/04/11 07:38:14;;;;;;;0.28;0.28;;;;;;;27.36;12.81;94118.44;5089753;28;20458;-41
2021/04/11 07:41:21;;;;;;;0.25;0.25;;;;;;;27.63;12.91;94116.06;5089248;28;20062;-42
2021/04/11 07:44:20;;;;;;;4.50;2.60;;;;;;;27.30;13.29;94112.47;5088013;28;20106;-44
2021/04/11 07:47:00;;;;;;;0.57;0.57;;;;;;;28.25;13.32;94115.00;5069493;28;20036;-43
2021/04/11 07:50:05;;;;;;;1.75;0.63;;;;;;;28.90;11.38;94114.63;5089629;28;20036;-42
2021/04/11 07:52:48;;;;;;;0.60;0.60;;;;;;;28.59;11.85;94114.91;5085603;28;20391;-42
2021/04/11 07:55:31;;;;;;;1.33;1.23;;;;;;;29.51;12.23;94104.00;5088252;28;20035;-42
2021/04/11 07:58:41;;;;;;;0.55;0.52;;;;;;;29.61;11.63;94107.19;5088388;28;20035;-42
2021/04/11 08:01:22;;;;;;;0.20;0.20;;;;;;;29.97;10.63;94105.53;5089132;28;20032;-42
2021/04/11 08:04:11;;;;;;;0.45;0.45;;;;;;;30.42;10.79;94104.84;5087420;28;20056;-41
2021/04/11 08:06:55;;;;;;;0.47;0.47;;;;;;;29.89;10.13;94105.28;5088638;28;20028;-43
2021/04/11 08:09:46;;;;;;;0.63;0.30;;;;;;;30.32;11.22;94109.53;5088534;28;20102;-41
2021/04/11 08:12:49;;;;;;;0.35;0.30;;;;;;;30.42;10.75;94109.81;5088635;28;20623;-41
2021/04/11 08:15:19;;;;;;;0.30;0.30;;;;;;;30.65;10.00;94103.38;5077367;28;20079;-42
2021/04/11 08:17:45;;;;;;;0.70;0.70;;;;;;;30.06;9.18;94112.22;5088452;28;20020;-41
2021/04/11 08:20:13;;;;;;;0.52;0.50;;;;;;;26.83;10.68;94110.47;5088219;28;20038;-42
2021/04/11 08:22:53;;;;;;;0.63;0.50;;;;;;;27.70;10.50;94109.25;5078969;28;20988;-41
2021/04/11 08:25:40;;;;;;;0.32;0.32;;;;;;;28.65;10.39;94106.59;5085712;28;20044;-42
2021/04/11 08:28:22;;;;;;;0.65;0.45;;;;;;;27.70;11.02;94106.41;5088143;28;20020;-43
2021/04/11 08:30:55;;;;;;;0.45;0.40;;;;;;;28.80;11.13;94105.72;5085245;28;20043;-41
2021/04/11 08:33:51;;;;;;;0.40;0.40;;;;;;;29.28;11.01;94103.91;5079875;28;20493;-44
2021/04/11 08:36:38;;;;;;;0.20;0.20;;;;;;;30.08;9.82;94103.78;5088262;28;20032;-42
2021/04/11 08:39:34;;;;;;;0.93;0.77;;;;;;;30.10;10.73;94100.25;5073032;28;20041;-43
2021/04/11 08:42:18;;;;;;;1.20;0.85;;;;;;;30.20;10.03;94098.44;5076940;28;20031;-42
2021/04/11 08:45:11;;;;;;;0.65;0.65;;;;;;;29.96;10.38;94094.81;5085529;28;20036;-42
2021/04/11 08:48:00;;;;;;;1.30;1.20;;;;;;;30.24;9.37;94095.72;5088632;28;20456;-41
2021/04/11 08:50:39;;;;;;;1.52;0.40;;;;;;;29.78;9.64;94092.13;5087438;28;20047;-41
2021/04/11 08:53:09;;;;;;;0.45;0.45;;;;;;;30.05;9.86;94092.97;5086870;28;20031;-42
2021/04/11 08:56:03;;;;;;;0.20;0.20;;;;;;;30.64;9.07;94093.38;5086830;28;20015;-42
2021/04/11 08:58:45;;;;;;;0.50;0.50;;;;;;;29.82;9.66;94097.94;5086502;28;20543;-43
2021/04/11 09:01:45;;;;;;;1.05;0.75;;;;;;;27.27;12.21;94091.06;5087936;28;20106;-41
2021/04/11 09:04:25;;;;;;;1.27;0.68;;;;;;;28.18;11.30;94084.91;5081377;28;20047;-41
2021/04/11 09:07:21;;;;;;;0.30;0.30;;;;;;;28.05;11.33;94093.59;5078706;28;20024;-42
2021/04/11 09:10:02;;;;;;;2.58;1.67;;;;;;;28.14;11.35;94081.19;5085721;28;20027;-41
2021/04/11 09:12:37;;;;;;;0.45;0.45;;;;;;;27.95;11.75;94076.16;5087463;28;20034;-41
2021/04/11 09:15:15;;;;;;;1.70;0.80;;;;;;;29.29;9.38;94080.50;5081124;28;20409;-42
2021/04/11 09:17:49;;;;;;;0.40;0.40;;;;;;;29.23;9.88;94075.34;5086634;28;20047;-41
2021/04/11 09:20:18;;;;;;;0.28;0.28;;;;;;;29.21;11.83;94063.16;5085474;28;20031;-42
2021/04/11 09:22:59;;;;;;;0.60;0.60;;;;;;;28.83;11.84;94070.28;5087141;28;20028;-43
2021/04/11 09:25:26;;;;;;;0.30;0.30;;;;;;;30.24;10.58;94061.53;5085623;28;20024;-42
2021/04/11 09:28:10;;;;;;;3.67;1.20;;;;;;;30.39;10.46;94057.00;5086181;28;20066;-41
2021/04/11 09:31:00;;;;;;;1.02;1.02;;;;;;;31.02;10.18;94057.41;5087564;28;20423;-41
2021/04/11 09:33:41;;;;;;;0.20;0.20;;;;;;;30.90;11.20;94051.41;5087685;28;20019;-42
2021/04/11 09:36:32;;;;;;;1.55;0.70;;;;;;;31.59;11.05;94051.09;5087645;28;20024;-42
2021/04/11 09:39:15;;;;;;;0.47;0.47;;;;;;;31.83;9.99;94053.81;5049049;28;20470;-41
2021/04/11 09:42:00;;;;;;;1.90;0.85;;;;;;;31.98;9.94;94047.06;5074421;28;20027;-41
2021/04/11 09:44:34;;;;;;;1.00;0.93;;;;;;;32.36;11.02;94047.94;5085807;28;20039;-44
2021/04/11 09:47:27;;;;;;;2.55;2.35;;;;;;;32.38;9.72;94044.41;5089701;28;20454;-42
2021/04/11 09:49:58;;;;;;;1.83;0.82;;;;;;;32.38;9.97;94041.56;5069431;28;20025;-43
2021/04/11 09:52:51;;;;;;;2.30;1.65;;;;;;;32.09;10.04;94043.03;5069409;28;20035;-43
2021/04/11 09:55:50;;;;;;;0.45;0.45;;;;;;;31.81;11.03;94043.09;5073903;28;20029;-42
2021/04/11 09:58:18;;;;;;;2.60;2.22;;;;;;;31.98;9.91;94039.22;5085471;28;20024;-43
2021/04/11 10:01:06;;;;;;;0.40;0.40;;;;;;;32.35;9.63;94040.78;5084788;28;20494;-42
2021/04/11 10:03:35;;;;;;;0.35;0.35;;;;;;;32.75;9.78;94030.19;5087115;28;20703;-43
2021/04/11 10:06:38;;;;;;;0.45;0.40;;;;;;;32.69;8.69;94032.94;5086355;28;20054;-41
2021/04/11 10:09:28;;;;;;;0.82;0.32;;;;;;;32.27;9.02;94034.16;5004901;28;20025;-44
2021/04/11 10:11:56;;;;;;;1.13;0.80;;;;;;;32.73;9.27;94035.16;5083939;28;20032;-42
2021/04/11 10:14:50;;;;;;;0.32;0.32;;;;;;;32.71;9.91;94027.25;5087954;28;20024;-44
2021/04/11 10:17:33;;;;;;;0.50;0.32;;;;;;;32.58;9.67;94031.28;5088085;28;20024;-42
2021/04/11 10:20:23;;;;;;;0.63;0.63;;;;;;;31.95;9.25;94017.72;5089358;28;20024;-42
2021/04/11 10:22:56;;;;;;;2.67;1.17;;;;;;;32.10;9.75;94018.75;5089501;28;20039;-43
2021/04/11 10:25:26;;;;;;;0.40;0.40;;;;;;;32.04;9.14;94013.66;5088272;28;20028;-42
2021/04/11 10:28:04;;;;;;;0.28;0.25;;;;;;;31.29;9.97;94016.06;5089539;28;20408;-41
2021/04/11 10:30:30;;;;;;;0.50;0.50;;;;;;;30.54;9.11;94010.41;5073113;28;20119;-44
2021/04/11 10:33:09;;;;;;;0.40;0.40;;;;;;;28.73;10.28;94016.69;5068963;28;20045;-43
2021/04/11 10:35:54;;;;;;;;;;;;;;;28.97;10.67;94011.84;5084449;28;20127;-40
2021/04/11 10:38:45;;;;;;;1.13;1.00;;;;;;;28.90;10.22;94010.16;5078110;28;20373;-42
2021/04/11 10:41:33;;;;;;;0.10;0.10;;;;;;;28.42;10.53;94025.44;5076750;28;20040;-42
2021/04/11 10:44:29;;;;;;;0.03;0.03;;;;;;;28.83;10.46;94013.44;5081446;28;20037;-40
2021/04/11 10:47:19;;;;;;;0.30;0.30;;;;;;;28.34;11.65;94017.38;5072590;28;20413;-43
2021/04/11 10:50:02;;;;;;;1.05;0.88;;;;;;;28.87;11.67;94020.00;5072448;28;20024;-39
2021/04/11 10:53:05;;;;;;;0.10;0.10;;;;;;;29.37;11.15;94014.63;5071100;28;20028;-41
2021/04/11 10:56:03;;;;;;;0.43;0.40;;;;;;;28.86;10.49;94012.88;5072394;28;20412;-41
2021/04/11 10:58:53;;;;;;;0.25;0.25;;;;;;;29.55;10.56;94010.22;5026712;28;20123;-41
2021/04/11 11:01:39;;;;;;;0.40;0.40;;;;;;;29.57;11.61;94012.41;5072576;28;20122;-40
2021/04/11 11:04:10;;;;;;;0.40;0.40;;;;;;;29.55;12.00;94003.81;5031081;28;20102;-40
2021/04/11 11:07:03;;;;;;;0.15;0.15;;;;;;;30.05;9.08;93998.97;5072403;28;20036;-41
2021/04/11 11:09:45;;;;;;;0.68;0.68;;;;;;;28.28;11.21;93991.59;5074717;28;20493;-40
2021/04/11 11:12:39;;;;;;;0.30;0.30;;;;;;;27.61;11.18;93993.25;5083699;28;20028;-42
2021/04/11 11:15:46;;;;;;;0.80;0.80;;;;;;;24.13;14.97;93994.78;5092710;28;20055;-39
2021/04/11 11:18:49;;;;;;;0.28;0.28;;;;;;;25.25;14.48;93999.06;5057279;28;20036;-39
2021/04/11 11:21:30;;;;;;;1.08;0.73;;;;;;;26.19;14.51;94005.63;5048938;28;20101;-39
2021/04/11 11:24:16;;;;;;;0.55;0.55;;;;;;;26.33;13.83;93992.09;5092137;28;20402;-40
2021/04/11 11:27:03;;;;;;;0.90;0.77;;;;;;;26.83;13.16;93990.75;5088664;28;20158;-41
2021/04/11 11:30:06;;;;;;;0.80;0.25;;;;;;;26.17;12.83;93994.22;5074585;28;20036;-40
2021/04/11 11:33:02;;;;;;;0.93;0.85;;;;;;;26.52;12.85;93982.28;5070101;28;20019;-39
2021/04/11 11:35:28;;;;;;;0.80;0.75;;;;;;;26.62;13.90;93986.28;5084276;28;20593;-41
2021/04/11 11:37:55;;;;;;;0.13;0.13;;;;;;;26.83;13.96;93979.41;5080780;28;20017;-40
2021/04/11 11:40:36;;;;;;;0.73;0.73;;;;;;;26.84;13.70;93973.09;5071045;28;20031;-41
2021/04/11 11:43:19;;;;;;;0.22;0.22;;;;;;;26.64;14.22;93975.03;5068498;28;20035;-44
2021/04/11 11:46:03;;;;;;;0.20;0.20;;;;;;;26.55;13.88;93973.22;5068600;28;20413;-43
2021/04/11 11:48:47;;;;;;;0.40;0.40;;;;;;;25.77;13.59;93966.91;5068751;28;20032;-41
2021/04/11 11:51:33;;;;;;;0.22;0.22;;;;;;;25.45;14.92;93951.97;5069579;28;20572;-40
2021/04/11 11:54:25;;;;;;;1.30;0.57;;;;;;;25.48;13.70;93964.84;5069083;28;20044;-40
2021/04/11 11:57:06;;;;;;;0.47;0.47;;;;;;;25.10;14.82;93957.34;5069137;28;20424;-40
2021/04/11 11:59:38;;;;;;;2.55;1.10;;;;;;;24.54;15.04;93953.16;5068728;28;20032;-40
2021/04/11 12:02:25;;;;;;;1.08;0.75;;;;;;;24.34;14.38;93957.06;5077796;28;20861;-43
2021/04/11 12:05:09;;;;;;;0.25;0.25;;;;;;;24.21;14.99;93964.19;5068829;28;20462;-42
2021/04/11 12:07:45;;;;;;;0.63;0.63;;;;;;;23.54;14.27;93957.06;5073874;28;20414;-42
2021/04/11 12:10:14;;;;;;;0.75;0.50;;;;;;;22.87;14.64;93957.53;5077944;28;20032;-41
2021/04/11 12:12:50;;;;;;;1.55;1.27;;;;;;;22.90;17.27;93957.03;5085270;28;20043;-41
2021/04/11 12:15:37;;;;;;;0.30;0.30;;;;;;;22.86;14.31;93953.97;5089279;28;20028;-40
2021/04/11 12:18:21;;;;;;;1.48;0.45;;;;;;;22.92;17.29;93947.94;5076627;28;20028;-40
2021/04/11 12:21:12;;;;;;;0.47;0.47;;;;;;;22.55;17.51;93937.41;5076632;28;20031;-41
2021/04/11 12:23:45;;;;;;;0.52;0.52;;;;;;;22.78;16.67;93938.72;5079323;28;20517;-40
2021/04/11 12:26:17;;;;;;;0.45;0.45;;;;;;;22.66;15.60;93930.31;5087542;28;20035;-41
2021/04/11 12:28:43;;;;;;;0.80;0.80;;;;;;;22.56;15.82;93932.53;5086180;28;20059;-40